Time;durP1;ratioP1;P1;durP2;ratioP2;P2;SDS_P1;SDS_P2;PMS_P1;PMS_P2;Temp;Humidity;BMP_temperature;BMP_pressure;BME280_temperature;BME280_humidity;BME280_pressure;Samples;Min_cycle;Max_cycle;Signal;HPM_P1;HPM_P2
2022/08/18 00:02:03;;;;;;;26.33;10.70;;;18.40;99.90;;;;;;6225024;22;20020;-86
2022/08/18 00:04:29;;;;;;;30.98;10.13;;;18.40;99.90;;;;;;6277812;22;20015;-86
2022/08/18 00:06:55;;;;;;;31.08;10.88;;;18.30;99.90;;;;;;6277959;22;20427;-86
2022/08/18 00:09:21;;;;;;;15.85;8.20;;;18.30;99.90;;;;;;6244044;23;20028;-86
2022/08/18 00:11:47;;;;;;;26.17;9.57;;;18.30;99.90;;;;;;6246965;22;20147;-86
2022/08/18 00:14:17;;;;;;;18.63;9.10;;;18.30;99.90;;;;;;6245657;23;20016;-86
2022/08/18 00:16:43;;;;;;;22.40;9.90;;;18.40;99.90;;;;;;6244253;23;20023;-86
2022/08/18 00:19:09;;;;;;;28.02;10.70;;;18.40;99.90;;;;;;6247086;22;20459;-86
2022/08/18 00:21:35;;;;;;;32.80;10.48;;;18.30;99.90;;;;;;6246993;22;20360;-86
2022/08/18 00:24:01;;;;;;;23.10;9.70;;;18.30;99.90;;;;;;6244274;23;20436;-85
2022/08/18 00:26:27;;;;;;;30.65;9.77;;;18.40;99.90;;;;;;6219743;23;20074;-86
2022/08/18 00:28:53;;;;;;;19.05;9.07;;;18.40;99.90;;;;;;6220231;23;20087;-86
2022/08/18 00:31:19;;;;;;;22.75;10.18;;;18.40;99.90;;;;;;6218733;23;20074;-86
2022/08/18 00:33:44;;;;;;;17.20;9.68;;;18.30;99.90;;;;;;6247215;22;20046;-86
2022/08/18 00:36:11;;;;;;;21.83;9.10;;;18.40;99.90;;;;;;6244042;23;20024;-86
2022/08/18 00:38:38;;;;;;;23.45;8.00;;;18.30;99.90;;;;;;6245480;23;20102;-86
2022/08/18 00:41:05;;;;;;;21.08;9.02;;;18.30;99.90;;;;;;6246884;22;20074;-86
2022/08/18 00:43:38;;;;;;;23.80;7.90;;;18.30;99.90;;;;;;6245839;22;20012;-86
2022/08/18 00:46:23;;;;;;;21.02;8.10;;;18.30;99.90;;;;;;6219805;23;20039;-86
2022/08/18 00:48:48;;;;;;;22.23;8.20;;;18.30;99.90;;;;;;6246917;22;20012;-85
2022/08/18 00:51:29;;;;;;;16.42;10.23;;;18.30;99.90;;;;;;6243961;23;20023;-85
2022/08/18 00:54:05;;;;;;;15.82;8.18;;;18.30;99.90;;;;;;6220823;23;20427;-86
2022/08/18 00:56:43;;;;;;;28.58;9.13;;;18.30;99.90;;;;;;6244895;23;20047;-86
2022/08/18 00:59:19;;;;;;;18.17;7.43;;;18.20;99.90;;;;;;6245433;22;20016;-86
2022/08/18 01:01:49;;;;;;;20.08;8.73;;;18.20;99.90;;;;;;6244722;23;20030;-86
2022/08/18 01:04:32;;;;;;;17.05;7.78;;;18.20;99.90;;;;;;6244345;23;20012;-86
2022/08/18 01:07:04;;;;;;;15.85;6.95;;;18.20;99.90;;;;;;6246380;22;20051;-86
2022/08/18 01:09:29;;;;;;;23.08;7.18;;;18.20;99.90;;;;;;6244498;23;20035;-86
2022/08/18 01:11:55;;;;;;;19.92;8.00;;;18.20;99.90;;;;;;6245329;22;20020;-86
2022/08/18 01:14:21;;;;;;;20.02;8.48;;;18.30;99.90;;;;;;6244609;23;20012;-86
2022/08/18 01:22:31;;;;;;;12.75;6.93;;;18.30;99.90;;;;;;6246423;23;20024;-86
2022/08/18 01:27:44;;;;;;;20.77;7.90;;;18.20;99.90;;;;;;6246541;23;20024;-86
2022/08/18 01:30:14;;;;;;;29.73;9.25;;;18.00;99.90;;;;;;6244660;23;20091;-86
2022/08/18 01:32:44;;;;;;;18.85;7.97;;;18.20;99.90;;;;;;6218777;23;20028;-86
2022/08/18 01:35:12;;;;;;;23.15;7.63;;;18.20;99.90;;;;;;6246479;22;20016;-86
2022/08/18 01:37:37;;;;;;;15.07;7.45;;;18.20;99.90;;;;;;6245807;23;20031;-86
2022/08/18 01:40:07;;;;;;;17.63;8.13;;;18.30;99.90;;;;;;6247659;22;20016;-86
2022/08/18 01:42:35;;;;;;;15.70;7.05;;;18.20;99.90;;;;;;6246773;23;20091;-86
2022/08/18 01:45:03;;;;;;;18.65;7.53;;;18.20;99.90;;;;;;6246660;23;20020;-86
2022/08/18 01:47:31;;;;;;;18.50;7.72;;;18.20;99.90;;;;;;6247459;22;20028;-86
2022/08/18 01:49:57;;;;;;;19.80;7.13;;;18.20;99.90;;;;;;6247165;23;20012;-86
2022/08/18 01:52:23;;;;;;;21.60;7.05;;;18.20;99.90;;;;;;6246569;23;20077;-86
2022/08/18 01:54:51;;;;;;;21.30;7.75;;;18.20;99.90;;;;;;6220768;23;20012;-86
2022/08/18 01:57:18;;;;;;;18.65;6.97;;;18.20;99.90;;;;;;6246525;23;20064;-85
2022/08/18 01:59:44;;;;;;;24.23;6.88;;;18.10;99.90;;;;;;6248448;22;20012;-86
2022/08/18 02:02:14;;;;;;;18.00;6.00;;;18.20;99.90;;;;;;6247240;22;20016;-86
2022/08/18 02:04:40;;;;;;;17.63;6.97;;;18.10;99.90;;;;;;6247735;23;20051;-86
2022/08/18 02:07:10;;;;;;;23.30;7.53;;;18.20;99.90;;;;;;6246897;23;20039;-86
2022/08/18 02:09:38;;;;;;;18.20;6.30;;;18.20;99.90;;;;;;6260861;22;20324;-86
2022/08/18 02:12:06;;;;;;;16.05;6.57;;;18.10;99.90;;;;;;6278487;22;20049;-86
2022/08/18 02:14:33;;;;;;;14.15;6.57;;;18.10;99.90;;;;;;6250439;22;20016;-86
2022/08/18 02:17:00;;;;;;;23.45;8.40;;;18.10;99.90;;;;;;6251401;22;20083;-86
2022/08/18 02:19:26;;;;;;;24.55;7.35;;;18.20;99.90;;;;;;6251913;22;20015;-86
2022/08/18 02:21:52;;;;;;;29.75;7.70;;;18.20;99.90;;;;;;6224857;22;20806;-86
2022/08/18 02:24:21;;;;;;;27.75;7.75;;;18.10;99.90;;;;;;6226529;22;20419;-86
2022/08/18 02:26:54;;;;;;;22.40;8.65;;;18.20;99.90;;;;;;6225767;22;20019;-86
2022/08/18 02:29:20;;;;;;;24.13;8.15;;;18.10;99.90;;;;;;6277835;22;20385;-86
2022/08/18 02:31:46;;;;;;;20.25;8.20;;;18.10;99.90;;;;;;6251918;22;20019;-86
2022/08/18 02:34:12;;;;;;;18.67;7.15;;;18.20;99.90;;;;;;6278667;22;20035;-86
2022/08/18 02:36:38;;;;;;;15.93;6.90;;;18.10;99.90;;;;;;6224998;22;20023;-86
2022/08/18 02:39:04;;;;;;;25.90;8.32;;;18.10;99.90;;;;;;6251642;22;20015;-86
2022/08/18 02:41:30;;;;;;;11.10;6.70;;;18.10;99.90;;;;;;6278309;22;20443;-86
2022/08/18 02:43:57;;;;;;;24.90;7.85;;;18.10;99.90;;;;;;6224857;22;20011;-85
2022/08/18 02:46:23;;;;;;;19.48;8.20;;;18.10;99.90;;;;;;6251482;22;20030;-86
2022/08/18 02:48:51;;;;;;;22.55;8.10;;;18.10;99.90;;;;;;6250849;22;20351;-86
2022/08/18 02:51:17;;;;;;;21.27;8.40;;;18.10;99.90;;;;;;6224920;22;20058;-86
2022/08/18 02:53:46;;;;;;;35.60;9.10;;;18.10;99.90;;;;;;6251164;22;20012;-86
2022/08/18 02:56:23;;;;;;;16.13;7.95;;;18.10;99.90;;;;;;6278452;22;20054;-86
2022/08/18 02:58:52;;;;;;;19.92;8.10;;;18.10;99.90;;;;;;6225079;22;20020;-86
2022/08/18 03:01:20;;;;;;;14.25;7.57;;;18.10;99.90;;;;;;6277883;22;20020;-86
2022/08/18 03:03:47;;;;;;;27.73;10.70;;;18.10;99.90;;;;;;6224774;22;20089;-86
2022/08/18 03:06:12;;;;;;;27.65;9.13;;;18.10;99.90;;;;;;6251393;22;20074;-85
2022/08/18 03:08:38;;;;;;;21.35;8.60;;;18.10;99.90;;;;;;6225341;22;20020;-86
2022/08/18 03:11:04;;;;;;;21.38;9.02;;;18.20;99.90;;;;;;6277023;22;20184;-86
2022/08/18 03:13:30;;;;;;;25.10;9.20;;;18.10;99.90;;;;;;6251453;22;20023;-86
2022/08/18 03:15:56;;;;;;;28.15;9.15;;;18.10;99.90;;;;;;6250539;22;20031;-86
2022/08/18 03:18:22;;;;;;;22.92;9.35;;;18.20;99.90;;;;;;6224868;22;20015;-86
2022/08/18 03:20:49;;;;;;;22.33;9.93;;;18.20;99.90;;;;;;6251197;22;20047;-86
2022/08/18 03:23:15;;;;;;;23.33;9.45;;;18.20;99.90;;;;;;6225574;22;20023;-86
2022/08/18 03:25:51;;;;;;;20.80;9.43;;;18.20;99.90;;;;;;6276927;22;20063;-86
2022/08/18 03:28:17;;;;;;;30.38;11.77;;;18.20;99.90;;;;;;6278568;22;20347;-86
2022/08/18 03:30:43;;;;;;;26.90;11.82;;;18.10;99.90;;;;;;6225430;22;20020;-86
2022/08/18 03:33:09;;;;;;;28.40;10.77;;;18.10;99.90;;;;;;6224980;22;20019;-86
2022/08/18 03:35:35;;;;;;;32.13;14.45;;;18.10;99.90;;;;;;6251132;22;20089;-86
2022/08/18 03:38:02;;;;;;;40.28;12.95;;;18.20;99.90;;;;;;6278018;22;20055;-86
2022/08/18 03:40:28;;;;;;;31.65;11.65;;;18.20;99.90;;;;;;6249923;22;20012;-86
2022/08/18 03:42:54;;;;;;;29.70;12.32;;;18.20;99.90;;;;;;6277976;22;20324;-86
2022/08/18 03:45:22;;;;;;;31.05;10.73;;;18.20;99.90;;;;;;6250555;22;20087;-86
2022/08/18 03:47:50;;;;;;;37.72;14.07;;;18.20;99.90;;;;;;6276859;22;20026;-86
2022/08/18 03:50:18;;;;;;;32.20;11.98;;;18.30;99.90;;;;;;6277715;22;20043;-86
2022/08/18 03:52:47;;;;;;;19.38;10.43;;;18.20;99.90;;;;;;6225041;22;20126;-86
2022/08/18 03:55:14;;;;;;;24.63;10.55;;;18.20;99.90;;;;;;6249591;22;20016;-86
2022/08/18 03:57:42;;;;;;;32.17;11.43;;;18.20;99.90;;;;;;6277949;22;20344;-86
2022/08/18 04:00:09;;;;;;;31.80;12.10;;;18.20;99.90;;;;;;6223709;22;20019;-86
2022/08/18 04:02:35;;;;;;;30.52;12.13;;;18.20;99.90;;;;;;6250194;22;20076;-86
2022/08/18 04:05:02;;;;;;;31.38;13.13;;;18.20;99.90;;;;;;6225478;22;20066;-86
2022/08/18 04:07:27;;;;;;;31.73;12.82;;;18.20;99.90;;;;;;6276673;22;20059;-86
2022/08/18 04:09:53;;;;;;;19.73;10.20;;;18.20;99.90;;;;;;6277358;22;20073;-86
2022/08/18 04:12:19;;;;;;;37.70;13.88;;;18.20;99.90;;;;;;6277468;22;20423;-86
2022/08/18 04:14:48;;;;;;;50.40;17.60;;;18.20;99.90;;;;;;6224050;22;20340;-86
2022/08/18 04:17:22;;;;;;;128.73;29.08;;;18.20;99.90;;;;;;6250684;22;20439;-86
2022/08/18 04:19:50;;;;;;;37.33;13.98;;;18.20;99.90;;;;;;6277189;22;20031;-86
2022/08/18 04:22:16;;;;;;;36.75;14.77;;;18.20;99.90;;;;;;6249036;22;20023;-86
2022/08/18 04:24:43;;;;;;;24.60;10.80;;;18.20;99.90;;;;;;6250032;22;20016;-86
2022/08/18 04:27:09;;;;;;;22.00;11.70;;;18.20;99.90;;;;;;6277622;22;20137;-86
2022/08/18 04:29:34;;;;;;;22.23;11.50;;;18.20;99.90;;;;;;6276135;22;20035;-86
2022/08/18 04:32:03;;;;;;;24.00;12.50;;;18.20;99.90;;;;;;6277180;22;20018;-86
2022/08/18 04:34:29;;;;;;;20.83;11.63;;;18.20;99.90;;;;;;6277878;22;20012;-86
2022/08/18 04:36:55;;;;;;;31.92;15.40;;;18.20;99.90;;;;;;6276436;22;20018;-86
2022/08/18 04:39:22;;;;;;;35.60;14.93;;;18.20;99.90;;;;;;6277636;22;20094;-86
2022/08/18 04:41:49;;;;;;;23.77;11.02;;;18.20;99.90;;;;;;6249738;22;20026;-86
2022/08/18 04:44:17;;;;;;;16.63;11.65;;;18.20;99.90;;;;;;6224277;22;20019;-86
2022/08/18 04:46:50;;;;;;;27.60;11.68;;;18.20;99.90;;;;;;6225118;22;20066;-86
2022/08/18 04:49:17;;;;;;;18.70;11.00;;;18.10;99.90;;;;;;6249141;22;20019;-86
2022/08/18 04:54:36;;;;;;;20.90;10.57;;;18.20;99.90;;;;;;6249866;22;20023;-86
2022/08/18 04:57:10;;;;;;;38.83;15.00;;;18.20;99.90;;;;;;6276321;22;20014;-86
2022/08/18 04:59:39;;;;;;;35.97;13.45;;;18.20;99.90;;;;;;6224935;22;20022;-86
2022/08/18 05:02:07;;;;;;;23.92;13.07;;;18.20;99.90;;;;;;6277799;22;20027;-86
2022/08/18 05:04:47;;;;;;;;;;;;;;;;;;;;;
2022/08/18 05:07:25;;;;;;;17.90;11.57;;;18.20;99.90;;;;;;6249373;22;20011;-86
2022/08/18 05:17:36;;;;;;;25.20;12.80;;;17.90;99.90;;;;;;6153233;23;20022;-88
2022/08/18 05:26:40;;;;;;;;;;;;;;;;;;;;;
2022/08/18 05:36:39;;;;;;;;;;;;;;;;;;;;;
2022/08/18 05:40:27;;;;;;;20.60;12.32;;;18.30;99.90;;;;;;6156773;23;20025;-87
2022/08/18 05:46:44;;;;;;;18.48;12.25;;;18.30;99.90;;;;;;6177251;23;20025;-88
2022/08/18 05:49:12;;;;;;;21.70;11.60;;;18.00;99.90;;;;;;6163285;22;20377;-86
2022/08/18 05:51:42;;;;;;;30.30;16.55;;;18.40;99.90;;;;;;6244574;23;20028;-86
2022/08/18 05:56:58;;;;;;;22.30;13.27;;;18.40;99.90;;;;;;6246485;23;20017;-87
2022/08/18 06:00:40;;;;;;;;;;;;;;;;;;;;;
2022/08/18 06:02:44;;;;;;;26.98;14.98;;;18.40;99.90;;;;;;6229211;22;20024;-87
2022/08/18 06:06:21;;;;;;;21.17;13.20;;;18.50;99.90;;;;;;6245435;23;20016;-87
2022/08/18 06:09:53;;;;;;;29.30;16.40;;;18.50;99.90;;;;;;5980245;24;20366;-88
2022/08/18 06:12:25;;;;;;;23.05;13.35;;;18.80;99.90;;;;;;6170651;22;20023;-88
2022/08/18 06:14:57;;;;;;;19.42;11.88;;;18.60;99.90;;;;;;6245486;22;20026;-87
2022/08/18 06:17:41;;;;;;;15.13;8.98;;;18.60;99.90;;;;;;6244829;23;20074;-87
2022/08/18 06:20:27;;;;;;;14.10;7.85;;;18.70;99.90;;;;;;6246419;22;20012;-87
2022/08/18 06:23:13;;;;;;;15.63;9.15;;;18.70;99.90;;;;;;6242800;23;20074;-86
2022/08/18 06:26:03;;;;;;;9.98;6.53;;;18.70;99.90;;;;;;6246948;23;20020;-87
2022/08/18 06:28:51;;;;;;;10.27;6.10;;;18.70;99.90;;;;;;6247156;22;20027;-87
2022/08/18 06:31:39;;;;;;;9.80;6.00;;;18.70;99.90;;;;;;6246398;23;20020;-87
2022/08/18 06:34:41;;;;;;;7.88;5.05;;;18.80;99.90;;;;;;6220792;23;20399;-87
2022/08/18 06:37:29;;;;;;;7.60;3.55;;;18.70;99.90;;;;;;6196685;22;20023;-88
2022/08/18 06:39:58;;;;;;;5.93;3.70;;;18.70;99.90;;;;;;6248084;22;20020;-88
2022/08/18 06:42:30;;;;;;;4.60;3.22;;;18.70;99.90;;;;;;6245129;23;20087;-88
2022/08/18 06:45:37;;;;;;;;;;;;;;;;;;;;;
2022/08/18 06:48:33;;;;;;;6.45;3.50;;;18.70;99.90;;;;;;6153716;23;20016;-87
2022/08/18 06:51:08;;;;;;;6.38;3.13;;;18.70;99.90;;;;;;6229016;23;20070;-87
2022/08/18 06:53:51;;;;;;;9.25;4.13;;;18.80;99.90;;;;;;6246525;23;20024;-87
2022/08/18 06:56:47;;;;;;;6.82;3.40;;;18.80;99.90;;;;;;6246930;22;20661;-89
2022/08/18 07:03:55;;;;;;;9.35;4.10;;;18.30;99.90;;;;;;6193610;22;20329;-89
2022/08/18 07:06:20;;;;;;;8.95;4.45;;;18.70;99.90;;;;;;6244975;23;20028;-88
2022/08/18 07:12:12;;;;;;;6.75;2.85;;;18.10;99.90;;;;;;6158524;23;20109;-87
2022/08/18 07:18:28;;;;;;;6.95;2.40;;;18.70;99.90;;;;;;6236928;22;20020;-92
2022/08/18 07:21:42;;;;;;;10.05;3.28;;;18.20;99.90;;;;;;6225367;22;20355;-86
2022/08/18 07:27:48;;;;;;;4.95;2.10;;;18.80;99.90;;;;;;6123945;23;20454;-89
2022/08/18 07:31:13;;;;;;;;;;;;;;;;;;;;;
2022/08/18 07:34:40;;;;;;;8.40;1.85;;;18.90;99.90;;;;;;6109867;22;20023;-87
2022/08/18 07:41:47;;;;;;;;;;;;;;;;;;;;;
2022/08/18 07:45:03;;;;;;;3.80;1.50;;;18.50;99.90;;;;;;6278149;22;20497;-87
2022/08/18 07:48:40;;;;;;;5.70;1.58;;;19.90;99.90;;;;;;6186669;22;20339;-89
2022/08/18 08:02:44;;;;;;;4.63;1.27;;;19.10;99.90;;;;;;6202100;22;20024;-89
2022/08/18 08:06:02;;;;;;;;;;;;;;;;;;;;;
2022/08/18 08:13:07;;;;;;;3.47;1.20;;;19.00;99.90;;;;;;6066325;23;20063;-87
2022/08/18 08:16:36;;;;;;;5.68;1.45;;;18.20;99.90;;;;;;6050708;23;20018;-88
2022/08/18 08:26:49;;;;;;;3.05;1.10;;;18.40;99.90;;;;;;6184013;23;20104;-87
2022/08/18 08:34:00;;;;;;;;;;;;;;;;;;;;;
2022/08/18 08:36:59;;;;;;;3.90;1.58;;;18.60;99.90;;;;;;6124603;23;20020;-88
2022/08/18 08:43:42;;;;;;;3.05;1.15;;;18.90;99.90;;;;;;6008531;23;20058;-87
2022/08/18 08:46:30;;;;;;;3.47;1.48;;;19.20;99.90;;;;;;6061509;23;20078;-88
2022/08/18 08:49:12;;;;;;;;;;;;;;;;;;;;;
2022/08/18 08:55:40;;;;;;;6.43;1.15;;;19.40;99.90;;;;;;6086462;23;20481;-87
2022/08/18 08:59:12;;;;;;;;;;;;;;;;;;;;;
2022/08/18 09:02:19;;;;;;;6.25;1.30;;;19.10;99.90;;;;;;6015004;23;20024;-86
2022/08/18 09:05:10;;;;;;;4.18;1.35;;;19.10;99.90;;;;;;6217171;23;20055;-86
2022/08/18 09:07:53;;;;;;;2.38;1.20;;;19.50;99.90;;;;;;6246749;23;20377;-87
2022/08/18 09:10:50;;;;;;;7.15;1.40;;;19.60;99.90;;;;;;6245404;23;20498;-86
2022/08/18 09:14:17;;;;;;;;;;;;;;;;;;;;;
2022/08/18 09:17:32;;;;;;;;;;;;;;;;;;;;;
2022/08/18 09:23:42;;;;;;;4.00;1.45;;;19.70;99.90;;;;;;6219820;23;20020;-85
2022/08/18 09:27:00;;;;;;;;;;;;;;;;;;;;;
2022/08/18 09:29:58;;;;;;;3.58;1.42;;;20.10;99.90;;;;;;6219268;23;20028;-86
2022/08/18 09:32:50;;;;;;;4.65;1.40;;;20.10;99.90;;;;;;6219031;23;20163;-88
2022/08/18 09:35:40;;;;;;;6.32;1.80;;;19.90;99.90;;;;;;6236095;23;20502;-88
2022/08/18 09:44:46;;;;;;;6.65;1.63;;;20.00;99.90;;;;;;6219111;23;20046;-88
2022/08/18 10:07:08;;;;;;;;;;;;;;;;;;;;;
2022/08/18 10:35:18;;;;;;;3.33;1.30;;;20.50;99.90;;;;;;6241437;22;20035;-88
2022/08/18 10:42:23;;;;;;;;;;;;;;;;;;;;;
2022/08/18 11:53:58;;;;;;;3.10;1.30;;;21.30;99.90;;;;;;6240770;22;20086;-87
2022/08/18 12:01:34;;;;;;;5.13;1.40;;;21.60;99.90;;;;;;6216694;23;20024;-88
2022/08/18 12:09:17;;;;;;;3.33;1.70;;;21.00;99.90;;;;;;6071115;23;20022;-88
2022/08/18 12:12:24;;;;;;;3.17;1.40;;;21.20;99.90;;;;;;6095659;23;20490;-90
2022/08/18 12:18:48;;;;;;;2.83;1.25;;;21.30;99.90;;;;;;6095221;23;20062;-88
2022/08/18 12:49:09;;;;;;;7.35;2.95;;;21.60;99.90;;;;;;6126221;23;20029;-86
2022/08/18 12:51:35;;;;;;;5.10;1.52;;;21.70;99.90;;;;;;6077220;23;20049;-84
2022/08/18 12:54:01;;;;;;;7.30;1.50;;;21.60;99.90;;;;;;6076549;23;20018;-83
2022/08/18 12:56:30;;;;;;;9.48;2.33;;;21.70;99.90;;;;;;6075946;23;20028;-83
2022/08/18 12:59:19;;;;;;;4.68;1.48;;;21.70;99.90;;;;;;6100829;23;20477;-86
2022/08/18 13:02:04;;;;;;;3.80;1.23;;;21.70;99.90;;;;;;6104387;23;20517;-84
2022/08/18 13:04:35;;;;;;;4.03;1.20;;;21.60;99.90;;;;;;6126764;23;20100;-85
2022/08/18 13:07:18;;;;;;;1.95;1.30;;;21.50;99.90;;;;;;6085804;23;20036;-84
2022/08/18 13:09:44;;;;;;;5.57;1.58;;;21.60;99.90;;;;;;6099302;23;20019;-84
2022/08/18 13:12:17;;;;;;;3.97;1.35;;;21.60;99.90;;;;;;6101086;23;20018;-86
2022/08/18 13:14:46;;;;;;;2.53;1.10;;;21.60;99.90;;;;;;6127287;23;20094;-86
2022/08/18 13:17:38;;;;;;;3.83;1.50;;;21.70;99.90;;;;;;6101165;23;20056;-85
2022/08/18 13:20:08;;;;;;;2.35;1.30;;;21.10;99.90;;;;;;6100849;23;20022;-83
2022/08/18 13:22:58;;;;;;;3.83;1.65;;;21.90;99.90;;;;;;6076704;23;20068;-85
2022/08/18 13:25:47;;;;;;;3.25;1.60;;;22.00;99.90;;;;;;6065628;23;20056;-85
2022/08/18 13:28:13;;;;;;;5.05;2.00;;;21.80;99.90;;;;;;6096222;23;20018;-84
2022/08/18 13:31:10;;;;;;;3.40;1.58;;;22.00;99.90;;;;;;6099721;23;20504;-86
2022/08/18 13:33:36;;;;;;;5.15;1.50;;;21.50;99.90;;;;;;6095766;23;20468;-84
2022/08/18 13:36:02;;;;;;;5.05;1.60;;;22.10;99.90;;;;;;6100859;23;20018;-85
2022/08/18 13:38:33;;;;;;;2.70;1.67;;;22.10;99.90;;;;;;6099911;23;20446;-86
2022/08/18 13:41:07;;;;;;;1.95;1.10;;;22.00;99.90;;;;;;6100975;23;20014;-85
2022/08/18 13:43:48;;;;;;;3.92;1.58;;;22.10;99.90;;;;;;6126492;23;20022;-84
2022/08/18 13:46:17;;;;;;;3.85;1.40;;;22.30;99.90;;;;;;6100267;23;20059;-83
2022/08/18 13:48:44;;;;;;;4.13;1.60;;;22.30;99.90;;;;;;6076399;23;20026;-84
2022/08/18 13:51:22;;;;;;;2.90;1.83;;;22.30;99.90;;;;;;6099608;23;20026;-84
2022/08/18 13:53:47;;;;;;;;;;;22.40;99.90;;;;;;6072423;23;20094;-83
2022/08/18 13:56:14;;;;;;;2.80;1.70;;;22.30;99.90;;;;;;6125215;23;19955;-84
2022/08/18 13:58:52;;;;;;;2.42;1.38;;;22.20;99.90;;;;;;6099847;23;20018;-86
2022/08/18 14:01:18;;;;;;;2.08;1.30;;;22.20;99.90;;;;;;6077070;23;20022;-83
2022/08/18 14:03:44;;;;;;;4.05;1.50;;;22.20;99.90;;;;;;6126657;23;20032;-84
2022/08/18 14:06:14;;;;;;;3.33;1.42;;;22.30;99.90;;;;;;6125829;23;20366;-84
2022/08/18 14:08:50;;;;;;;2.55;1.50;;;22.20;99.90;;;;;;6095182;23;20026;-83
2022/08/18 14:11:17;;;;;;;6.10;1.83;;;22.20;99.90;;;;;;6095092;23;20018;-84
2022/08/18 14:13:43;;;;;;;5.22;1.73;;;22.10;99.90;;;;;;6125370;23;20073;-84
2022/08/18 14:16:09;;;;;;;3.25;1.30;;;22.10;99.90;;;;;;6100458;23;20014;-84
2022/08/18 14:18:35;;;;;;;2.70;1.42;;;22.10;99.90;;;;;;6100845;23;20471;-85
2022/08/18 14:26:52;;;;;;;5.55;1.70;;;22.50;99.90;;;;;;6125368;23;20022;-83
2022/08/18 14:29:30;;;;;;;;;;;;;;;;;;;;;
2022/08/18 14:32:04;;;;;;;3.72;1.90;;;22.60;99.90;;;;;;6126910;23;20018;-84
2022/08/18 14:34:48;;;;;;;1.48;1.38;;;22.70;99.90;;;;;;6099517;23;20058;-84
2022/08/18 14:37:19;;;;;;;;;;;22.70;99.90;;;;;;6102086;23;20028;-86
2022/08/18 14:39:53;;;;;;;1.70;1.23;;;22.70;99.90;;;;;;6100584;23;20309;-86
2022/08/18 14:42:20;;;;;;;3.83;1.83;;;22.70;99.90;;;;;;6099823;23;20022;-83
2022/08/18 14:44:57;;;;;;;;;;;;;;;;;;;;;
2022/08/18 14:47:40;;;;;;;1.60;1.40;;;22.60;99.90;;;;;;6100863;23;20018;-83
2022/08/18 14:50:22;;;;;;;;;;;;;;;;;;;;;
2022/08/18 14:53:25;;;;;;;2.58;1.50;;;22.60;99.90;;;;;;6127522;23;20469;-85
2022/08/18 14:55:59;;;;;;;5.70;1.13;;;22.60;99.90;;;;;;6101869;23;20020;-86
2022/08/18 14:58:49;;;;;;;2.92;1.38;;;22.90;99.90;;;;;;6126787;23;20137;-85
2022/08/18 15:02:08;;;;;;;;;;;;;;;;;;;;;
2022/08/18 15:04:37;;;;;;;2.78;1.33;;;22.90;99.90;;;;;;6127658;23;20081;-85
2022/08/18 15:07:05;;;;;;;2.67;1.50;;;22.80;99.90;;;;;;6126627;23;20014;-84
2022/08/18 15:09:34;;;;;;;2.35;1.30;;;22.80;99.90;;;;;;6100863;23;20014;-85
2022/08/18 15:15:02;;;;;;;7.85;2.70;;;22.90;99.90;;;;;;6106507;23;20017;-84
2022/08/18 15:17:27;;;;;;;3.85;1.33;;;22.90;99.90;;;;;;6127298;23;20080;-85
2022/08/18 15:19:54;;;;;;;2.80;1.10;;;22.90;99.90;;;;;;6128054;23;20014;-84
2022/08/18 15:27:54;;;;;;;3.47;1.40;;;23.00;99.90;;;;;;6102326;23;20029;-87
2022/08/18 15:30:20;;;;;;;4.00;1.45;;;23.10;99.90;;;;;;6100604;23;20084;-85
2022/08/18 15:32:48;;;;;;;2.70;1.77;;;23.00;99.90;;;;;;6127911;23;20434;-85
2022/08/18 15:35:18;;;;;;;4.97;1.40;;;22.90;99.90;;;;;;6077395;23;20053;-87
2022/08/18 15:37:45;;;;;;;1.90;1.33;;;22.80;99.90;;;;;;6114669;23;20018;-85
2022/08/18 15:40:19;;;;;;;2.50;1.30;;;22.70;99.90;;;;;;6077730;23;20022;-85
2022/08/18 15:42:50;;;;;;;4.47;1.50;;;22.70;99.90;;;;;;6127875;23;20025;-84
2022/08/18 15:45:37;;;;;;;3.47;1.60;;;22.60;99.90;;;;;;6071343;23;20450;-86
2022/08/18 15:48:03;;;;;;;1.42;1.00;;;22.70;99.90;;;;;;6127327;23;20081;-84
2022/08/18 15:50:30;;;;;;;2.20;1.17;;;22.60;99.90;;;;;;6100797;23;20022;-85
2022/08/18 15:53:05;;;;;;;1.23;1.10;;;22.70;99.90;;;;;;6101489;23;20025;-84
2022/08/18 15:55:33;;;;;;;2.38;1.73;;;22.70;99.90;;;;;;6101306;23;20026;-84
2022/08/18 15:58:00;;;;;;;2.70;1.20;;;22.70;99.90;;;;;;6126807;23;20021;-84
2022/08/18 16:00:41;;;;;;;3.90;1.85;;;22.80;99.90;;;;;;6077404;23;20097;-86
2022/08/18 16:03:26;;;;;;;6.00;1.70;;;22.80;99.90;;;;;;6101557;23;20017;-85
2022/08/18 16:05:54;;;;;;;3.45;1.55;;;22.80;99.90;;;;;;6076635;23;20476;-83
2022/08/18 16:09:12;;;;;;;5.47;1.30;;;22.80;99.90;;;;;;6127341;23;20025;-86
2022/08/18 16:11:45;;;;;;;;;;;;;;;;;;;;;
2022/08/18 16:14:25;;;;;;;6.35;1.45;;;22.80;99.90;;;;;;6127096;23;20014;-85
2022/08/18 16:17:01;;;;;;;3.85;1.30;;;22.70;99.90;;;;;;6101369;23;20077;-89
2022/08/18 16:19:32;;;;;;;4.32;1.20;;;22.70;99.90;;;;;;6126308;23;20472;-84
2022/08/18 16:21:58;;;;;;;1.75;1.40;;;22.50;99.90;;;;;;6100779;23;20073;-84
2022/08/18 16:24:29;;;;;;;3.10;1.80;;;22.40;99.90;;;;;;6101403;23;20018;-85
2022/08/18 16:26:55;;;;;;;3.55;1.50;;;22.40;99.90;;;;;;6100422;23;20100;-84
2022/08/18 16:29:21;;;;;;;2.60;1.30;;;22.40;99.90;;;;;;6127237;23;20473;-84
2022/08/18 16:31:47;;;;;;;4.50;1.67;;;22.40;99.90;;;;;;6127151;23;20025;-85
2022/08/18 16:34:52;;;;;;;;;;;;;;;;;;;;;
2022/08/18 16:37:45;;;;;;;4.10;1.58;;;22.40;99.90;;;;;;6090491;23;20403;-85
2022/08/18 16:40:18;;;;;;;3.58;1.50;;;22.30;99.90;;;;;;6094291;23;20092;-87
2022/08/18 16:43:09;;;;;;;3.70;1.52;;;22.20;99.90;;;;;;6101285;23;20025;-86
2022/08/18 16:45:52;;;;;;;;;;;;;;;;;;;;;
2022/08/18 16:48:27;;;;;;;1.98;1.40;;;22.00;99.90;;;;;;6071129;23;20025;-85
2022/08/18 16:51:25;;;;;;;3.65;1.63;;;22.00;99.90;;;;;;6097940;23;20435;-85
2022/08/18 16:53:53;;;;;;;5.35;1.83;;;22.00;99.90;;;;;;6096926;23;20362;-85
2022/08/18 16:56:25;;;;;;;3.05;1.50;;;21.90;99.90;;;;;;6097849;23;20018;-84
2022/08/18 17:04:27;;;;;;;5.10;1.60;;;21.70;99.90;;;;;;6097588;23;20065;-85
2022/08/18 17:09:49;;;;;;;3.08;1.48;;;21.70;99.90;;;;;;6071404;23;20050;-85
2022/08/18 17:12:15;;;;;;;3.28;1.50;;;21.60;99.90;;;;;;6071854;23;20437;-84
2022/08/18 17:14:47;;;;;;;4.80;1.48;;;21.60;99.90;;;;;;6072386;23;20319;-89
2022/08/18 17:20:15;;;;;;;5.50;1.58;;;21.40;99.90;;;;;;6080844;23;20030;-84
2022/08/18 17:22:41;;;;;;;3.78;1.55;;;21.90;99.90;;;;;;6070792;23;20028;-85
2022/08/18 17:25:08;;;;;;;7.63;1.75;;;21.30;99.90;;;;;;6047818;23;20038;-86
2022/08/18 17:27:45;;;;;;;;;;;;;;;;;;;;;
2022/08/18 17:30:22;;;;;;;8.68;1.75;;;21.20;99.90;;;;;;6070820;23;20022;-84
2022/08/18 17:33:13;;;;;;;2.90;1.48;;;21.20;99.90;;;;;;6096990;23;20025;-87
2022/08/18 17:35:45;;;;;;;5.43;1.55;;;21.20;99.90;;;;;;6046003;23;20379;-85
2022/08/18 17:38:48;;;;;;;6.68;1.50;;;21.20;99.90;;;;;;6070658;23;20048;-84
2022/08/18 17:41:19;;;;;;;4.47;1.85;;;21.20;99.90;;;;;;6097444;23;20025;-87
2022/08/18 17:43:46;;;;;;;5.10;1.30;;;21.20;99.90;;;;;;6096579;23;20078;-86
2022/08/18 17:46:48;;;;;;;3.78;1.90;;;21.10;99.90;;;;;;6072007;23;20026;-86
2022/08/18 17:52:39;;;;;;;3.67;1.73;;;21.00;99.90;;;;;;6096796;23;20018;-86
2022/08/18 17:55:12;;;;;;;5.90;2.00;;;20.90;99.90;;;;;;6097606;23;20098;-86
2022/08/18 17:58:14;;;;;;;4.72;1.65;;;20.90;99.90;;;;;;6096344;23;20015;-86
2022/08/18 18:00:40;;;;;;;3.67;1.45;;;20.80;99.90;;;;;;6084250;23;20014;-85
2022/08/18 18:03:12;;;;;;;6.05;1.83;;;20.80;99.90;;;;;;6071490;23;20022;-86
2022/08/18 18:05:43;;;;;;;3.40;1.63;;;20.80;99.90;;;;;;6071236;23;20014;-87
2022/08/18 18:08:09;;;;;;;6.00;1.45;;;20.10;99.90;;;;;;6071672;23;20063;-85
2022/08/18 18:10:41;;;;;;;4.03;1.65;;;20.90;99.90;;;;;;6071245;23;20026;-86
2022/08/18 18:13:25;;;;;;;4.05;1.65;;;21.00;99.90;;;;;;6070834;23;20022;-85
2022/08/18 18:16:01;;;;;;;3.35;1.85;;;20.90;99.90;;;;;;6097464;23;20153;-84
2022/08/18 18:18:44;;;;;;;4.32;1.58;;;20.80;99.90;;;;;;6046735;23;20537;-85
2022/08/18 18:21:23;;;;;;;3.05;1.45;;;20.70;99.90;;;;;;6048928;23;20029;-86
2022/08/18 18:24:10;;;;;;;4.97;1.65;;;20.70;99.90;;;;;;6074616;23;20097;-87
2022/08/18 18:26:41;;;;;;;5.38;1.70;;;20.50;99.90;;;;;;6096832;23;20025;-84
2022/08/18 18:29:19;;;;;;;6.07;1.50;;;20.40;99.90;;;;;;6049503;23;20059;-87
2022/08/18 18:35:22;;;;;;;5.70;1.70;;;20.20;99.90;;;;;;6098765;23;20459;-85
2022/08/18 18:38:02;;;;;;;4.15;1.63;;;19.20;99.90;;;;;;5983752;23;20095;-87
2022/08/18 18:40:35;;;;;;;4.68;1.48;;;19.40;99.90;;;;;;6009672;23;20174;-88
2022/08/18 18:43:23;;;;;;;4.57;2.05;;;19.70;99.90;;;;;;5986717;23;20023;-84
2022/08/18 18:46:08;;;;;;;5.10;1.40;;;19.70;99.90;;;;;;6042267;23;20033;-83
2022/08/18 18:49:12;;;;;;;6.78;1.65;;;19.60;99.90;;;;;;6124372;23;20026;-82
2022/08/18 18:51:57;;;;;;;4.00;1.70;;;19.50;99.90;;;;;;6126717;23;20433;-82
2022/08/18 18:54:36;;;;;;;8.88;2.15;;;19.40;99.90;;;;;;6125515;23;20438;-82